Time;durP1;ratioP1;P1;durP2;ratioP2;P2;SDS_P1;SDS_P2;PMS_P1;PMS_P2;Temp;Humidity;BMP_temperature;BMP_pressure;BME280_temperature;BME280_humidity;BME280_pressure;Samples;Min_cycle;Max_cycle;Signal;HPM_P1;HPM_P2
2024/01/03 00:01:20;;;;;;;16.47;6.60;;;;;;;9.21;78.76;99573.63;5091549;28;20472;-82
2024/01/03 00:03:45;;;;;;;20.15;6.20;;;;;;;9.22;78.49;99572.72;5091863;28;20039;-81
2024/01/03 00:06:11;;;;;;;13.07;6.03;;;;;;;9.22;78.54;99568.34;5091641;28;20020;-82
2024/01/03 00:08:38;;;;;;;17.38;6.10;;;;;;;9.21;78.53;99571.88;5091595;28;20032;-81
2024/01/03 00:11:04;;;;;;;15.32;5.95;;;;;;;9.21;78.23;99566.63;5091454;28;20035;-82
2024/01/03 00:13:29;;;;;;;18.60;6.80;;;;;;;9.19;78.10;99557.88;5091005;28;20494;-81
2024/01/03 00:16:18;;;;;;;19.33;6.50;;;;;;;9.16;78.27;99561.41;5091296;28;20111;-81
2024/01/03 00:18:53;;;;;;;14.45;5.65;;;;;;;9.14;78.17;99570.16;5091690;28;20028;-81
2024/01/03 00:21:23;;;;;;;15.17;5.60;;;;;;;9.10;78.51;99569.34;5080190;28;20028;-81
2024/01/03 00:23:51;;;;;;;17.30;6.30;;;;;;;9.07;78.53;99558.88;5072637;28;20055;-81
2024/01/03 00:26:17;;;;;;;17.08;6.22;;;;;;;9.02;78.42;99558.91;5099902;28;20036;-80
2024/01/03 00:28:43;;;;;;;15.55;6.20;;;;;;;8.99;78.63;99564.19;5090679;28;20089;-81
2024/01/03 00:31:10;;;;;;;13.37;6.20;;;;;;;8.94;78.30;99567.72;5091239;28;20024;-81
2024/01/03 00:33:40;;;;;;;17.05;7.00;;;;;;;8.88;78.73;99564.28;5091503;28;20387;-81
2024/01/03 00:36:08;;;;;;;22.15;7.50;;;;;;;8.84;78.71;99565.19;5091253;28;20039;-80
2024/01/03 00:38:38;;;;;;;22.77;9.00;;;;;;;8.82;78.58;99563.44;5091296;28;20027;-80
2024/01/03 00:41:03;;;;;;;22.02;9.27;;;;;;;8.76;78.73;99577.50;5091274;28;20027;-82
2024/01/03 00:43:29;;;;;;;18.63;8.13;;;;;;;8.69;78.92;99581.94;5091274;28;20039;-83
2024/01/03 00:45:55;;;;;;;17.60;7.57;;;;;;;8.63;78.56;99583.72;5090765;28;20023;-83
2024/01/03 00:48:20;;;;;;;23.40;8.07;;;;;;;8.59;78.77;99568.00;5089388;28;20627;-82
2024/01/03 00:50:47;;;;;;;17.30;7.67;;;;;;;8.57;78.87;99569.78;5090934;28;20028;-83
2024/01/03 00:53:12;;;;;;;17.20;7.30;;;;;;;8.57;78.76;99575.03;5090847;28;20032;-82
2024/01/03 00:55:40;;;;;;;17.67;7.63;;;;;;;8.56;78.85;99580.28;5091156;28;20043;-82
2024/01/03 00:58:05;;;;;;;16.90;7.60;;;;;;;8.54;78.64;99572.41;5090895;28;20016;-81
2024/01/03 01:00:31;;;;;;;21.48;8.25;;;;;;;8.53;78.62;99567.19;5090667;28;20544;-82
2024/01/03 01:02:56;;;;;;;15.87;8.30;;;;;;;8.53;78.84;99561.94;5107390;28;20031;-81
2024/01/03 01:05:23;;;;;;;22.53;8.63;;;;;;;8.50;78.68;99560.19;5092937;28;20080;-83
2024/01/03 01:07:48;;;;;;;19.80;7.60;;;;;;;8.47;78.67;99562.81;5090644;28;20028;-82
2024/01/03 01:10:14;;;;;;;16.30;7.68;;;;;;;8.41;78.44;99573.34;5090577;28;20036;-80
2024/01/03 01:12:39;;;;;;;19.57;8.03;;;;;;;8.36;78.73;99581.25;5090440;28;20028;-81
2024/01/03 01:15:05;;;;;;;16.40;7.60;;;;;;;8.32;78.85;99583.03;5090364;28;20032;-80
2024/01/03 01:17:30;;;;;;;17.00;8.00;;;;;;;8.28;78.75;99586.53;5090742;28;20028;-83
2024/01/03 01:19:56;;;;;;;15.43;7.17;;;;;;;8.24;78.90;99583.94;5090393;28;20418;-82
2024/01/03 01:22:23;;;;;;;17.73;7.73;;;;;;;8.23;78.92;99596.19;5104714;28;20031;-82
2024/01/03 01:24:49;;;;;;;18.75;7.95;;;;;;;8.23;79.00;99596.19;5100374;28;20063;-82
2024/01/03 01:27:14;;;;;;;18.40;7.77;;;;;;;8.23;78.97;99590.94;5089547;28;20028;-82
2024/01/03 01:29:39;;;;;;;16.20;6.93;;;;;;;8.22;78.93;99591.81;5090065;28;20059;-84
2024/01/03 01:32:05;;;;;;;15.70;6.80;;;;;;;8.24;78.84;99586.56;5089973;28;20059;-83
2024/01/03 01:34:30;;;;;;;18.80;6.93;;;;;;;8.24;79.00;99590.03;5090187;28;20546;-83
2024/01/03 01:36:56;;;;;;;15.70;7.47;;;;;;;8.23;78.69;99590.94;5090209;28;20032;-83
2024/01/03 01:39:21;;;;;;;19.00;7.70;;;;;;;8.13;78.96;99595.34;5090240;28;20036;-84
2024/01/03 01:41:47;;;;;;;18.37;6.83;;;;;;;8.08;79.18;99591.88;5090050;28;20066;-82
2024/01/03 01:44:12;;;;;;;14.13;6.87;;;;;;;8.09;79.22;99587.53;5089531;28;20032;-81
2024/01/03 01:46:39;;;;;;;19.80;7.27;;;;;;;8.07;79.38;99576.13;5089967;28;20029;-82
2024/01/03 01:49:05;;;;;;;15.27;7.10;;;;;;;8.04;79.23;99570.03;5089828;28;20058;-81
2024/01/03 01:51:33;;;;;;;15.30;6.97;;;;;;;8.05;79.38;99571.78;5089708;28;20044;-81
2024/01/03 01:53:59;;;;;;;16.25;7.80;;;;;;;8.07;79.32;99570.91;5089771;28;20114;-82
2024/01/03 01:56:26;;;;;;;15.52;6.80;;;;;;;8.09;79.40;99577.03;5089980;28;20028;-82
2024/01/03 01:58:51;;;;;;;18.60;7.37;;;;;;;8.07;79.21;99577.03;5089345;28;20031;-82
2024/01/03 02:01:19;;;;;;;17.15;7.38;;;;;;;8.05;79.21;99566.53;5089705;28;20020;-84
2024/01/03 02:03:47;;;;;;;15.83;6.87;;;;;;;8.04;79.22;99564.78;5089678;28;20036;-83
2024/01/03 02:06:13;;;;;;;17.15;7.07;;;;;;;8.04;79.39;99567.41;5071429;28;20032;-83
2024/01/03 02:08:39;;;;;;;18.02;7.05;;;;;;;8.04;79.04;99572.66;5089703;28;20024;-83
2024/01/03 02:11:04;;;;;;;20.33;6.13;;;;;;;8.05;79.37;99560.44;5089649;28;20028;-83
2024/01/03 02:13:30;;;;;;;14.50;6.90;;;;;;;8.05;79.28;99568.31;5088725;28;20036;-83
2024/01/03 02:15:55;;;;;;;15.98;7.03;;;;;;;8.05;79.36;99576.16;5089103;28;20517;-81
2024/01/03 02:18:21;;;;;;;17.63;6.30;;;;;;;8.03;79.00;99584.03;5089658;28;20032;-82
2024/01/03 02:20:48;;;;;;;15.43;6.80;;;;;;;8.01;79.05;99587.56;5092113;28;20028;-82
2024/01/03 02:23:13;;;;;;;15.40;7.50;;;;;;;7.98;79.25;99591.06;5090116;28;20047;-83
2024/01/03 02:25:40;;;;;;;15.03;6.47;;;;;;;7.96;78.93;99594.56;5099329;28;20052;-83
2024/01/03 02:28:12;;;;;;;15.97;6.37;;;;;;;7.93;78.95;99602.44;5090565;28;20270;-83
2024/01/03 02:30:41;;;;;;;15.93;6.53;;;;;;;7.87;79.06;99603.34;5089318;28;20028;-83
2024/01/03 02:33:07;;;;;;;16.52;7.07;;;;;;;7.82;78.97;99599.84;5089597;28;20107;-83
2024/01/03 02:35:32;;;;;;;14.55;6.78;;;;;;;7.73;78.92;99606.88;5089822;28;20027;-83
2024/01/03 02:37:57;;;;;;;14.27;6.43;;;;;;;7.71;79.57;99611.25;5089619;28;20110;-83
2024/01/03 02:40:23;;;;;;;110.27;36.17;;;;;;;7.68;79.38;99615.63;5089801;28;20464;-82
2024/01/03 02:42:48;;;;;;;73.70;24.83;;;;;;;7.65;79.28;99611.28;5089308;28;20028;-83
2024/01/03 02:45:14;;;;;;;63.57;21.20;;;;;;;7.63;79.34;99606.91;5088931;28;20044;-83
2024/01/03 02:47:39;;;;;;;35.85;13.55;;;;;;;7.61;79.13;99618.25;5089305;28;20055;-83
2024/01/03 02:50:05;;;;;;;36.77;14.03;;;;;;;7.58;79.58;99613.03;5089273;28;20059;-83
2024/01/03 02:52:30;;;;;;;32.33;12.98;;;;;;;7.57;79.47;99610.41;5089174;28;20048;-83
2024/01/03 02:54:56;;;;;;;35.50;12.93;;;;;;;7.55;79.56;99607.81;5070460;28;20117;-82
2024/01/03 02:57:24;;;;;;;32.63;12.13;;;;;;;7.56;79.37;99598.19;5089493;28;20097;-83
2024/01/03 02:59:50;;;;;;;35.63;13.95;;;;;;;7.55;78.85;99591.19;5089058;28;20396;-82
2024/01/03 03:02:15;;;;;;;35.87;15.53;;;;;;;7.54;79.16;99587.72;5089129;28;20028;-83
2024/01/03 03:04:40;;;;;;;40.60;15.47;;;;;;;7.54;79.37;99589.44;5089224;28;20039;-83
2024/01/03 03:07:09;;;;;;;33.33;13.07;;;;;;;7.52;79.31;99592.09;5089225;28;20101;-83
2024/01/03 03:09:34;;;;;;;26.48;10.68;;;;;;;7.49;79.35;99586.88;5089071;28;20427;-83
2024/01/03 03:11:59;;;;;;;26.97;9.90;;;;;;;7.46;78.86;99586.84;5091969;28;20043;-83
2024/01/03 03:14:25;;;;;;;20.40;8.50;;;;;;;7.44;79.13;99592.09;5092725;28;20103;-83
2024/01/03 03:16:50;;;;;;;25.83;9.27;;;;;;;7.42;78.84;99596.47;5092782;28;20032;-83
2024/01/03 03:19:15;;;;;;;25.93;10.30;;;;;;;7.40;78.90;99589.47;5092852;28;20495;-81
2024/01/03 03:21:41;;;;;;;25.03;10.73;;;;;;;7.38;79.25;99579.03;5107500;28;20036;-81
2024/01/03 03:24:07;;;;;;;24.43;10.70;;;;;;;7.38;78.73;99599.97;5096944;28;20039;-81
2024/01/03 03:26:32;;;;;;;25.63;10.52;;;;;;;7.38;78.85;99610.47;5098865;28;20032;-82
2024/01/03 03:28:58;;;;;;;26.50;10.25;;;;;;;7.37;78.75;99599.97;5092462;28;20034;-82
2024/01/03 03:31:23;;;;;;;24.03;10.10;;;;;;;7.33;78.74;99579.03;5092749;28;20024;-81
2024/01/03 03:33:49;;;;;;;20.30;9.10;;;;;;;7.27;78.98;99578.16;5092226;28;20063;-82
2024/01/03 03:36:15;;;;;;;23.27;9.10;;;;;;;7.26;79.20;99579.03;5092587;28;20073;-82
2024/01/03 03:38:41;;;;;;;20.40;9.13;;;;;;;7.24;78.84;99575.56;5092734;28;20036;-82
2024/01/03 03:41:11;;;;;;;22.48;9.40;;;;;;;7.23;79.25;99568.56;5092679;28;20028;-80
2024/01/03 03:43:37;;;;;;;21.58;9.80;;;;;;;7.23;78.94;99573.81;5091964;28;20385;-81
2024/01/03 03:46:03;;;;;;;23.87;9.80;;;;;;;7.19;78.54;99596.50;5092124;28;20039;-82
2024/01/03 03:48:28;;;;;;;20.88;9.38;;;;;;;7.14;79.23;99591.28;5092240;28;20411;-82
2024/01/03 03:50:53;;;;;;;24.47;9.93;;;;;;;7.13;79.21;99580.81;5092053;28;20107;-82
2024/01/03 03:53:19;;;;;;;21.67;9.67;;;;;;;7.11;78.97;99583.41;5092342;28;20032;-81
2024/01/03 03:55:44;;;;;;;23.30;9.37;;;;;;;7.12;78.99;99566.84;5092226;28;20039;-81
2024/01/03 03:58:10;;;;;;;24.08;9.30;;;;;;;7.14;79.27;99564.22;5092223;28;20024;-83
2024/01/03 04:00:35;;;;;;;24.93;9.40;;;;;;;7.15;79.40;99566.84;5091567;28;20031;-83
2024/01/03 04:03:01;;;;;;;19.93;8.53;;;;;;;7.15;78.93;99566.84;5091999;28;20032;-82
2024/01/03 04:05:26;;;;;;;20.63;8.67;;;;;;;7.13;79.08;99568.59;5091960;28;20113;-84
2024/01/03 04:07:51;;;;;;;17.75;7.75;;;;;;;7.16;79.58;99572.94;5091824;28;20031;-83
2024/01/03 04:10:17;;;;;;;19.90;8.70;;;;;;;7.16;78.88;99576.44;5091448;28;20092;-83
2024/01/03 04:12:42;;;;;;;20.53;8.60;;;;;;;7.13;78.98;99586.94;5091643;28;20399;-83
2024/01/03 04:15:08;;;;;;;18.30;8.77;;;;;;;7.11;79.27;99596.50;5091394;28;20027;-82
2024/01/03 04:17:34;;;;;;;16.20;7.97;;;;;;;7.10;79.32;99605.22;5091786;28;20108;-83
2024/01/03 04:20:00;;;;;;;18.15;7.57;;;;;;;7.13;79.74;99593.88;5091813;28;20031;-82
2024/01/03 04:22:28;;;;;;;16.80;8.97;;;;;;;7.15;79.54;99595.66;5093765;28;20019;-82
2024/01/03 04:24:54;;;;;;;20.52;8.52;;;;;;;7.15;79.17;99603.50;5110197;28;20481;-82
2024/01/03 04:27:19;;;;;;;18.80;8.10;;;;;;;7.15;79.29;99616.59;5091580;28;20107;-82
2024/01/03 04:29:44;;;;;;;17.07;8.27;;;;;;;7.17;79.04;99595.63;5072691;28;20025;-81
2024/01/03 04:32:10;;;;;;;15.53;7.70;;;;;;;7.18;79.32;99607.84;5091528;28;20047;-84
2024/01/03 04:34:39;;;;;;;17.60;8.00;;;;;;;7.22;79.04;99598.25;5091331;28;20020;-81
2024/01/03 04:37:04;;;;;;;21.77;8.93;;;;;;;7.21;79.17;99617.47;5091479;28;20020;-81
2024/01/03 04:39:29;;;;;;;18.37;8.00;;;;;;;7.18;79.13;99600.88;5091322;28;20499;-82
2024/01/03 04:41:55;;;;;;;16.25;7.57;;;;;;;7.20;79.12;99610.47;5091236;28;20034;-81
2024/01/03 04:44:20;;;;;;;15.77;8.33;;;;;;;7.22;79.50;99624.44;5090905;28;20036;-82
2024/01/03 04:46:45;;;;;;;18.40;8.47;;;;;;;7.22;79.26;99625.28;5091192;28;20052;-81
2024/01/03 04:49:11;;;;;;;16.47;7.93;;;;;;;7.22;78.98;99621.81;5072822;28;20016;-81
2024/01/03 04:51:36;;;;;;;18.77;8.60;;;;;;;7.23;79.77;99616.56;5090729;28;20383;-83
2024/01/03 04:54:01;;;;;;;17.00;8.53;;;;;;;7.22;79.63;99629.69;5091164;28;20035;-82
2024/01/03 04:56:29;;;;;;;26.53;10.33;;;;;;;7.21;79.64;99623.53;5091158;28;20374;-83
2024/01/03 04:58:55;;;;;;;21.30;8.63;;;;;;;7.24;79.43;99627.94;5090633;28;20339;-84
2024/01/03 05:01:20;;;;;;;19.92;8.80;;;;;;;7.28;79.28;99619.19;5090851;28;20115;-83
2024/01/03 05:03:45;;;;;;;21.03;9.07;;;;;;;7.29;79.73;99626.16;5091038;28;20613;-83
2024/01/03 05:06:11;;;;;;;15.93;8.75;;;;;;;7.31;79.32;99627.91;5090923;28;20036;-83
2024/01/03 05:08:36;;;;;;;21.13;8.70;;;;;;;7.32;79.47;99615.69;5090979;28;20028;-83
2024/01/03 05:11:02;;;;;;;20.50;10.30;;;;;;;7.30;80.03;99628.81;5089836;28;20649;-82
2024/01/03 05:13:29;;;;;;;21.20;10.10;;;;;;;7.29;79.77;99634.03;5090707;28;20038;-84
2024/01/03 05:15:57;;;;;;;28.45;11.07;;;;;;;7.29;79.66;99626.16;5090316;28;20021;-83
2024/01/03 05:18:23;;;;;;;23.50;10.30;;;;;;;7.27;80.03;99623.56;5090813;28;20020;-82
2024/01/03 05:20:48;;;;;;;21.40;8.90;;;;;;;7.27;80.17;99639.28;5097473;28;20153;-83
2024/01/03 05:23:13;;;;;;;18.03;8.87;;;;;;;7.30;79.97;99646.25;5110979;28;20085;-83
2024/01/03 05:25:39;;;;;;;23.92;9.77;;;;;;;7.30;80.00;99659.34;5102639;28;20044;-83
2024/01/03 05:28:05;;;;;;;20.47;9.40;;;;;;;7.28;79.86;99661.09;5090376;28;20048;-83
2024/01/03 05:30:30;;;;;;;25.70;10.15;;;;;;;7.24;80.24;99654.13;5089646;28;20507;-82
2024/01/03 05:32:56;;;;;;;22.80;9.33;;;;;;;7.20;80.38;99662.84;5090045;28;20052;-83
2024/01/03 05:35:21;;;;;;;26.20;11.03;;;;;;;7.14;80.54;99654.13;5090052;28;20106;-81
2024/01/03 05:37:46;;;;;;;24.17;10.10;;;;;;;7.11;81.13;99648.88;5090357;28;20454;-82
2024/01/03 05:40:12;;;;;;;21.95;10.05;;;;;;;7.11;80.59;99646.25;5089992;28;20123;-82
2024/01/03 05:42:37;;;;;;;21.00;10.20;;;;;;;7.13;80.86;99652.38;5090402;28;20032;-83
2024/01/03 05:45:03;;;;;;;23.50;11.13;;;;;;;7.11;81.15;99654.09;5089679;28;20032;-83
2024/01/03 05:47:28;;;;;;;22.33;9.87;;;;;;;7.10;81.43;99668.06;5090090;28;20036;-82
2024/01/03 05:49:54;;;;;;;20.75;10.38;;;;;;;7.11;81.03;99672.44;5089845;28;20038;-82
2024/01/03 05:52:19;;;;;;;22.43;11.10;;;;;;;7.10;81.29;99686.38;5089973;28;20024;-81
2024/01/03 05:54:44;;;;;;;23.27;9.87;;;;;;;7.11;80.98;99693.38;5089988;28;20096;-82
2024/01/03 05:57:10;;;;;;;24.40;11.10;;;;;;;7.12;81.69;99684.69;5090202;28;20707;-82
2024/01/03 05:59:35;;;;;;;21.87;10.40;;;;;;;7.15;81.16;99679.44;5089518;28;20071;-81
2024/01/03 06:02:01;;;;;;;23.30;10.35;;;;;;;7.17;81.55;99669.84;5071512;28;20567;-82
2024/01/03 06:04:26;;;;;;;21.43;9.90;;;;;;;7.18;81.32;99661.09;5089982;28;20055;-82
2024/01/03 06:06:52;;;;;;;21.57;9.60;;;;;;;7.22;81.49;99663.72;5089623;28;20031;-82
2024/01/03 06:09:18;;;;;;;22.03;10.00;;;;;;;7.28;81.34;99679.41;5089889;28;20067;-82
2024/01/03 06:11:43;;;;;;;23.47;9.83;;;;;;;7.33;80.87;99675.03;5089472;28;20267;-82
2024/01/03 06:14:09;;;;;;;22.50;10.40;;;;;;;7.36;81.08;99680.31;5089315;28;20028;-83
2024/01/03 06:16:34;;;;;;;24.23;10.82;;;;;;;7.38;81.01;99668.09;5089728;28;20030;-83
2024/01/03 06:19:00;;;;;;;23.13;11.83;;;;;;;7.39;80.87;99671.56;5089763;28;20036;-83
2024/01/03 06:21:26;;;;;;;19.35;10.18;;;;;;;7.39;80.81;99672.44;5071396;28;20039;-83
2024/01/03 06:23:52;;;;;;;26.00;11.33;;;;;;;7.43;81.01;99661.09;5089491;28;20047;-82
2024/01/03 06:26:17;;;;;;;19.92;9.38;;;;;;;7.42;81.41;99669.81;5097916;28;20024;-82
2024/01/03 06:28:43;;;;;;;19.03;8.90;;;;;;;7.44;80.86;99678.56;5089278;28;20500;-81
2024/01/03 06:31:08;;;;;;;20.37;9.70;;;;;;;7.47;81.13;99682.91;5089218;28;20042;-82
2024/01/03 06:33:33;;;;;;;20.58;9.65;;;;;;;7.51;81.19;99679.44;5089452;28;20032;-82
2024/01/03 06:35:59;;;;;;;16.90;8.63;;;;;;;7.52;81.01;99677.66;5089401;28;20036;-83
2024/01/03 06:38:25;;;;;;;17.77;8.35;;;;;;;7.54;80.69;99692.53;5071428;28;20365;-82
2024/01/03 06:40:51;;;;;;;16.50;8.37;;;;;;;7.56;80.81;99710.84;5089268;28;20036;-82
2024/01/03 06:43:16;;;;;;;19.35;8.35;;;;;;;7.58;80.96;99716.94;5089525;28;20055;-81
2024/01/03 06:45:41;;;;;;;22.60;11.10;;;;;;;7.60;80.88;99716.09;5089991;28;20088;-81
2024/01/03 06:48:07;;;;;;;25.03;11.63;;;;;;;7.59;81.17;99729.19;5093541;28;20498;-81
2024/01/03 06:50:33;;;;;;;23.30;11.13;;;;;;;7.56;80.94;99722.22;5093094;28;20043;-82
2024/01/03 06:52:58;;;;;;;22.25;9.75;;;;;;;7.57;81.42;99729.19;5074906;28;20035;-82
2024/01/03 06:55:23;;;;;;;18.23;8.87;;;;;;;7.59;81.29;99734.41;5093184;28;20036;-82
2024/01/03 06:57:49;;;;;;;21.83;9.50;;;;;;;7.61;81.34;99722.22;5093194;28;20028;-82
2024/01/03 07:00:15;;;;;;;18.57;8.67;;;;;;;7.62;81.33;99713.47;5092638;28;20407;-82
2024/01/03 07:02:40;;;;;;;18.35;8.45;;;;;;;7.61;81.01;99720.44;5093139;28;20078;-82
2024/01/03 07:05:09;;;;;;;22.13;9.35;;;;;;;7.63;81.31;99712.59;5092178;28;20028;-81
2024/01/03 07:07:34;;;;;;;21.03;9.80;;;;;;;7.65;81.43;99707.34;5069917;28;20036;-84
2024/01/03 07:09:59;;;;;;;20.20;9.90;;;;;;;7.63;81.78;99709.97;5090386;28;20032;-83
2024/01/03 07:12:25;;;;;;;18.63;8.80;;;;;;;7.62;81.59;99708.25;5092114;28;20325;-83
2024/01/03 07:14:50;;;;;;;17.87;8.70;;;;;;;7.64;81.40;99711.72;5089033;28;20031;-82
2024/01/03 07:17:15;;;;;;;19.77;8.70;;;;;;;7.64;81.63;99706.50;5092299;28;20020;-82
2024/01/03 07:19:41;;;;;;;19.50;8.63;;;;;;;7.66;81.22;99704.72;5091963;28;20110;-81
2024/01/03 07:22:06;;;;;;;19.37;8.60;;;;;;;7.71;81.00;99715.19;5094227;28;20036;-82
2024/01/03 07:24:32;;;;;;;17.53;8.37;;;;;;;7.73;81.22;99724.81;5073409;28;20697;-80
2024/01/03 07:26:57;;;;;;;17.70;8.00;;;;;;;7.78;81.27;99727.44;5091747;28;20107;-81
2024/01/03 07:29:22;;;;;;;17.70;8.60;;;;;;;7.80;81.00;99732.66;5089172;28;20024;-83
2024/01/03 07:31:48;;;;;;;19.40;8.70;;;;;;;7.81;81.18;99737.03;5091253;28;20024;-82
2024/01/03 07:34:13;;;;;;;20.50;8.73;;;;;;;7.83;81.09;99743.13;5091804;28;20035;-82
2024/01/03 07:36:38;;;;;;;20.53;9.23;;;;;;;7.85;81.03;99741.41;5071067;28;20321;-81
2024/01/03 07:39:05;;;;;;;21.57;9.37;;;;;;;7.82;82.27;99741.38;5092503;28;20020;-83
2024/01/03 07:41:31;;;;;;;21.55;10.35;;;;;;;7.83;81.68;99748.38;5092260;28;20032;-83
2024/01/03 07:43:57;;;;;;;20.55;10.00;;;;;;;7.84;81.35;99751.00;5091381;28;20503;-83
2024/01/03 07:46:23;;;;;;;19.93;9.23;;;;;;;7.85;81.83;99746.66;5088114;28;20117;-80
2024/01/03 07:48:49;;;;;;;20.85;9.82;;;;;;;7.87;81.68;99765.88;5072813;28;20486;-83
2024/01/03 07:51:18;;;;;;;22.33;10.20;;;;;;;7.84;82.72;99756.25;5073042;28;20029;-83
2024/01/03 07:53:44;;;;;;;19.50;8.68;;;;;;;7.82;82.78;99746.63;5093471;28;20047;-82
2024/01/03 07:56:09;;;;;;;22.83;8.97;;;;;;;7.79;82.23;99741.41;5090982;28;20056;-80
2024/01/03 07:58:35;;;;;;;22.37;9.10;;;;;;;7.78;82.36;99731.78;5090759;28;20059;-78
2024/01/03 08:01:00;;;;;;;19.95;9.43;;;;;;;7.79;82.79;99728.28;5091165;28;20103;-80
2024/01/03 08:03:26;;;;;;;20.83;9.33;;;;;;;7.81;82.83;99734.41;5091943;28;20089;-81
2024/01/03 08:05:53;;;;;;;17.45;8.38;;;;;;;7.80;82.70;99723.06;5091884;28;20024;-80
2024/01/03 08:08:18;;;;;;;20.15;8.48;;;;;;;7.81;82.68;99723.91;5091926;28;20035;-80
2024/01/03 08:10:44;;;;;;;19.33;8.70;;;;;;;7.83;82.76;99728.28;5091725;28;20423;-81
2024/01/03 08:13:11;;;;;;;25.07;9.33;;;;;;;7.87;82.90;99739.66;5073272;28;20028;-80
2024/01/03 08:15:36;;;;;;;20.58;8.98;;;;;;;7.89;82.12;99737.91;5073404;28;20538;-80
2024/01/03 08:18:02;;;;;;;19.23;8.87;;;;;;;7.90;82.20;99743.13;5092043;28;20087;-82
2024/01/03 08:20:27;;;;;;;24.40;9.47;;;;;;;7.94;81.83;99745.75;5077500;28;20053;-81
2024/01/03 08:22:52;;;;;;;19.60;9.32;;;;;;;7.97;82.45;99745.75;5112166;28;20048;-81
2024/01/03 08:25:18;;;;;;;21.27;10.20;;;;;;;7.98;81.87;99758.84;5106712;28;20091;-81
2024/01/03 08:27:43;;;;;;;22.77;10.37;;;;;;;8.00;82.14;99767.59;5091497;28;20073;-81
2024/01/03 08:30:09;;;;;;;24.30;11.33;;;;;;;8.03;81.88;99772.81;5090902;28;20081;-81
2024/01/03 08:32:36;;;;;;;22.83;10.50;;;;;;;8.05;81.92;99771.06;5091437;28;20043;-81
2024/01/03 08:35:03;;;;;;;25.80;11.60;;;;;;;8.08;81.67;99766.69;5073512;28;20396;-80
2024/01/03 08:37:29;;;;;;;24.48;10.55;;;;;;;8.12;81.83;99771.06;5091475;28;20107;-81
2024/01/03 08:39:55;;;;;;;19.00;8.60;;;;;;;8.14;81.80;99769.31;5091099;28;20055;-83
2024/01/03 08:42:23;;;;;;;20.65;8.50;;;;;;;8.18;81.70;99765.81;5091667;28;20056;-81
2024/01/03 08:44:48;;;;;;;15.68;7.38;;;;;;;8.19;81.65;99780.66;5090884;28;20028;-81
2024/01/03 08:47:14;;;;;;;18.13;7.93;;;;;;;8.22;81.50;99790.28;5091140;28;20054;-81
2024/01/03 08:49:41;;;;;;;17.00;7.70;;;;;;;8.25;81.72;99799.00;5090865;28;20032;-81
2024/01/03 08:52:07;;;;;;;16.67;8.10;;;;;;;8.25;81.76;99790.28;5091215;28;20122;-82
2024/01/03 08:54:32;;;;;;;18.00;8.10;;;;;;;8.26;81.86;99795.50;5090824;28;20107;-81
2024/01/03 08:56:57;;;;;;;19.80;8.73;;;;;;;8.24;81.94;99792.03;5091027;28;20031;-81
2024/01/03 08:59:23;;;;;;;19.97;8.63;;;;;;;8.23;81.53;99794.66;5090218;28;20035;-80
2024/01/03 09:01:56;;;;;;;20.23;8.77;;;;;;;8.25;81.83;99790.28;5090544;28;20362;-80
2024/01/03 09:04:22;;;;;;;16.67;7.75;;;;;;;8.27;81.79;99789.38;5090864;28;20139;-81
2024/01/03 09:06:47;;;;;;;14.70;7.40;;;;;;;8.28;81.71;99799.00;5089054;28;20028;-80
2024/01/03 09:09:13;;;;;;;17.77;8.13;;;;;;;8.30;81.54;99802.50;5089680;28;20024;-82
2024/01/03 09:11:41;;;;;;;16.60;7.97;;;;;;;8.33;81.65;99793.75;5090697;28;20031;-82
2024/01/03 09:14:07;;;;;;;19.27;7.88;;;;;;;8.36;81.63;99813.88;5090487;28;20025;-83
2024/01/03 09:16:33;;;;;;;18.00;7.68;;;;;;;8.33;81.54;99813.00;5090659;28;20024;-80
2024/01/03 09:18:59;;;;;;;17.20;8.10;;;;;;;8.36;81.87;99816.50;5090297;28;20039;-81
2024/01/03 09:21:26;;;;;;;18.57;8.50;;;;;;;8.36;82.17;99819.13;5090659;28;20270;-82
2024/01/03 09:23:52;;;;;;;17.75;8.27;;;;;;;8.36;82.00;99811.25;5090021;28;20044;-84
2024/01/03 09:26:22;;;;;;;15.87;7.80;;;;;;;8.34;81.98;99816.50;5098664;28;20039;-81
2024/01/03 09:28:48;;;;;;;16.05;8.13;;;;;;;8.32;81.96;99816.50;5089639;28;20032;-79
2024/01/03 09:31:14;;;;;;;17.63;8.50;;;;;;;8.32;82.36;99816.50;5090358;28;20058;-79
2024/01/03 09:33:39;;;;;;;15.13;8.07;;;;;;;8.35;82.59;99825.25;5090291;28;20035;-79
2024/01/03 09:36:05;;;;;;;16.73;7.83;;;;;;;8.33;82.66;99823.50;5089990;28;20506;-80
2024/01/03 09:38:30;;;;;;;17.85;7.72;;;;;;;8.37;82.66;99833.97;5090130;28;20515;-79
2024/01/03 09:40:58;;;;;;;18.30;7.87;;;;;;;8.38;82.34;99833.09;5090260;28;20035;-79
2024/01/03 09:43:23;;;;;;;16.73;7.32;;;;;;;8.39;82.29;99829.59;5090261;28;20031;-79
2024/01/03 09:45:49;;;;;;;15.47;7.50;;;;;;;8.41;82.22;99841.81;5089691;28;20036;-83
2024/01/03 09:48:15;;;;;;;19.02;8.07;;;;;;;8.44;82.52;99852.34;5089532;28;20039;-80
2024/01/03 09:50:41;;;;;;;33.55;8.27;;;;;;;8.47;82.40;99851.44;5089740;28;20031;-80
2024/01/03 09:53:10;;;;;;;18.67;8.60;;;;;;;8.50;82.48;99847.97;5089952;28;20103;-79
2024/01/03 09:55:35;;;;;;;19.58;8.85;;;;;;;8.53;82.45;99853.22;5089919;28;20612;-79
2024/01/03 09:58:01;;;;;;;19.03;8.27;;;;;;;8.55;82.22;99854.94;5089860;28;20032;-78
2024/01/03 10:00:30;;;;;;;16.20;8.35;;;;;;;8.59;82.83;99846.22;5089386;28;20098;-79
2024/01/03 10:03:06;;;;;;;22.57;8.57;;;;;;;8.61;82.59;99862.81;5089860;28;20515;-79
2024/01/03 10:05:32;;;;;;;17.92;8.70;;;;;;;8.64;82.93;99884.69;5089715;28;20114;-80
2024/01/03 10:07:58;;;;;;;16.85;8.27;;;;;;;8.64;82.88;99895.19;5089410;28;20103;-81
2024/01/03 10:10:34;;;;;;;18.77;9.43;;;;;;;8.65;83.02;99910.91;5089589;28;20476;-81
2024/01/03 10:13:19;;;;;;;17.70;8.27;;;;;;;8.64;82.88;99901.28;5089744;28;20025;-81
2024/01/03 10:15:47;;;;;;;17.10;7.63;;;;;;;8.66;82.71;99894.28;5071367;28;20395;-81
2024/01/03 10:18:19;;;;;;;18.70;8.43;;;;;;;8.69;82.41;99894.31;5089519;28;20085;-80
2024/01/03 10:20:45;;;;;;;17.50;7.60;;;;;;;8.71;82.33;99897.81;5082764;28;20602;-80
2024/01/03 10:23:15;;;;;;;18.23;8.20;;;;;;;8.75;82.13;99903.91;5089455;28;20031;-80
2024/01/03 10:25:43;;;;;;;19.95;8.90;;;;;;;8.76;82.18;99906.53;5045705;28;20049;-80
2024/01/03 10:28:11;;;;;;;19.08;8.73;;;;;;;8.80;82.22;99924.91;5047514;28;20025;-80
2024/01/03 10:30:37;;;;;;;17.87;9.17;;;;;;;8.76;82.67;99909.16;5048879;28;20025;-80
2024/01/03 10:33:07;;;;;;;20.08;8.93;;;;;;;8.79;82.34;99900.38;5049284;28;20372;-79
2024/01/03 10:35:34;;;;;;;20.48;9.10;;;;;;;8.81;82.28;99903.03;5049182;28;20041;-80
2024/01/03 10:38:01;;;;;;;21.33;9.43;;;;;;;8.82;82.45;99900.41;5049086;28;20017;-80
2024/01/03 10:40:28;;;;;;;20.03;8.77;;;;;;;8.83;82.52;99890.75;5049478;28;20124;-80
2024/01/03 10:42:54;;;;;;;17.10;8.75;;;;;;;8.84;82.57;99890.78;5048014;28;20032;-80
2024/01/03 10:45:20;;;;;;;20.48;9.32;;;;;;;8.86;82.62;99886.38;5047259;28;20033;-82
2024/01/03 10:47:46;;;;;;;20.95;8.75;;;;;;;8.91;82.55;99902.09;5048672;28;20029;-84
2024/01/03 10:50:12;;;;;;;18.30;8.77;;;;;;;8.93;82.60;99902.09;5049180;28;20025;-82
2024/01/03 10:52:43;;;;;;;16.15;7.78;;;;;;;8.94;82.30;99904.75;5049229;28;20087;-83
2024/01/03 10:55:25;;;;;;;23.10;9.05;;;;;;;9.00;82.36;99898.56;5049334;28;20029;-83
2024/01/03 10:58:00;;;;;;;18.52;8.82;;;;;;;9.02;82.27;99895.06;5048984;28;20089;-82
2024/01/03 11:00:44;;;;;;;16.83;8.17;;;;;;;9.05;82.04;99902.09;5048922;28;20060;-81
2024/01/03 11:03:12;;;;;;;21.17;8.60;;;;;;;9.08;82.30;99891.56;5049155;28;20128;-81
2024/01/03 11:05:47;;;;;;;18.30;8.60;;;;;;;9.15;81.85;99874.00;5049053;28;20033;-82
2024/01/03 11:08:18;;;;;;;23.55;10.40;;;;;;;9.24;82.05;99855.56;5048660;28;20036;-80
2024/01/03 11:10:49;;;;;;;20.05;8.68;;;;;;;9.33;81.71;99855.50;5049039;28;20021;-80
2024/01/03 11:13:31;;;;;;;19.27;8.43;;;;;;;9.42;81.56;99869.50;5047734;28;20067;-81
2024/01/03 11:15:58;;;;;;;19.33;9.02;;;;;;;9.45;81.93;99870.34;5040228;28;20418;-81
2024/01/03 11:18:42;;;;;;;17.00;8.70;;;;;;;9.48;81.70;99853.69;5036030;28;20029;-83
2024/01/03 11:21:25;;;;;;;20.30;8.65;;;;;;;9.48;81.42;99859.81;5049032;28;20049;-84
2024/01/03 11:23:50;;;;;;;19.20;9.00;;;;;;;9.48;82.18;99865.06;5058245;28;20040;-84
2024/01/03 11:26:16;;;;;;;21.50;9.13;;;;;;;9.53;81.70;99857.16;5097549;28;20496;-82
2024/01/03 11:28:48;;;;;;;19.23;9.00;;;;;;;9.54;82.16;99858.03;5088596;28;20430;-82